createdAt,value
2022-11-05T00:01:47.898Z,101514.88
2022-11-05T00:04:33.102Z,101513.00
2022-11-05T00:07:45.130Z,101512.41
2022-11-05T00:10:19.092Z,101508.06
2022-11-05T00:16:04.601Z,101511.03
2022-11-05T00:18:31.330Z,101522.72
2022-11-05T00:20:57.799Z,101529.75
2022-11-05T00:23:42.878Z,101528.13
2022-11-05T00:26:11.481Z,101536.28
2022-11-05T00:28:38.955Z,101536.28
2022-11-05T00:31:09.983Z,101549.84
2022-11-05T00:33:37.781Z,101560.94
2022-11-05T00:36:05.351Z,101553.88
2022-11-05T00:38:32.430Z,101561.19
2022-11-05T00:40:59.405Z,101556.25
2022-11-05T00:43:44.653Z,101559.56
2022-11-05T00:46:11.228Z,101565.81
2022-11-05T00:48:56.335Z,101560.13
2022-11-05T00:51:22.789Z,101566.03
2022-11-05T00:53:49.254Z,101560.63
2022-11-05T00:56:15.703Z,101559.25
2022-11-05T00:58:42.197Z,101565.47
2022-11-05T01:01:10.282Z,101572.81
2022-11-05T01:03:39.386Z,101570.09
2022-11-05T01:06:12.736Z,101570.31
2022-11-05T01:08:40.211Z,101564.91
2022-11-05T01:11:33.120Z,101564.91
2022-11-05T01:14:09.779Z,101560.88
2022-11-05T01:16:37.506Z,101558.66
2022-11-05T01:19:08.387Z,101565.16
2022-11-05T01:21:35.028Z,101554.31
2022-11-05T01:24:02.438Z,101560.81
2022-11-05T01:26:29.610Z,101551.81
2022-11-05T01:29:00.413Z,101546.41
2022-11-05T01:31:28.558Z,101557.25
2022-11-05T01:33:55.197Z,101555.38
2022-11-05T01:36:21.670Z,101556.44
2022-11-05T01:38:48.251Z,101552.09
2022-11-05T01:41:14.780Z,101563.75
2022-11-05T01:44:00.871Z,101556.13
2022-11-05T01:46:44.868Z,101564.03
2022-11-05T01:49:26.093Z,101559.69
2022-11-05T01:51:52.713Z,101559.91
2022-11-05T01:54:26.281Z,101571.56
2022-11-05T01:56:58.590Z,101578.91
2022-11-05T01:59:28.228Z,101574.88
2022-11-05T02:01:55.071Z,101582.69
2022-11-05T02:04:30.146Z,101577.25
2022-11-05T02:06:56.956Z,101589.19
2022-11-05T02:09:29.482Z,101591.06
2022-11-05T02:11:56.069Z,101586.47
2022-11-05T02:14:22.936Z,101581.06
2022-11-05T02:17:24.166Z,101582.09
2022-11-05T02:23:31.880Z,101581.28
2022-11-05T02:26:19.111Z,101571.50
2022-11-05T02:28:51.469Z,101576.13
2022-11-05T02:31:21.156Z,101575.31
2022-11-05T02:33:57.069Z,101571.78
2022-11-05T02:36:35.620Z,101575.53
2022-11-05T02:39:12.077Z,101574.72
2022-11-05T02:42:06.629Z,101573.91
2022-11-05T02:47:57.007Z,101574.72
2022-11-05T02:50:58.555Z,101577.69
2022-11-05T02:53:37.272Z,101577.69
2022-11-05T02:56:13.304Z,101588.53
2022-11-05T02:58:39.800Z,101593.97
2022-11-05T03:01:07.150Z,101583.13
2022-11-05T03:03:47.436Z,101576.03
2022-11-05T03:06:46.868Z,101568.41
2022-11-05T03:09:46.883Z,101568.97
2022-11-05T03:12:35.199Z,101571.69
2022-11-05T03:15:07.573Z,101566.53
2022-11-05T03:17:55.304Z,101564.03
2022-11-05T03:23:26.463Z,101565.69
2022-11-05T03:26:09.149Z,101568.66
2022-11-05T03:28:38.785Z,101561.31
2022-11-05T03:31:07.850Z,101564.03
2022-11-05T03:33:37.067Z,101557.78
2022-11-05T03:36:08.057Z,101557.78
2022-11-05T03:38:38.631Z,101559.69
2022-11-05T03:41:07.347Z,101556.97
2022-11-05T03:43:43.304Z,101556.97
2022-11-05T03:46:13.933Z,101571.63
2022-11-05T03:48:45.836Z,101560.75
2022-11-05T03:51:16.380Z,101564.56
2022-11-05T03:53:49.958Z,101561.84
2022-11-05T03:56:39.848Z,101565.59
2022-11-05T03:59:09.172Z,101566.41
2022-11-05T04:01:37.947Z,101565.59
2022-11-05T04:04:08.676Z,101569.41
2022-11-05T04:06:54.141Z,101572.09
2022-11-05T04:09:39.473Z,101574.00
2022-11-05T04:12:24.861Z,101568.56
2022-11-05T04:14:51.331Z,101572.38
2022-11-05T04:17:17.818Z,101573.19
2022-11-05T04:20:04.254Z,101573.19
2022-11-05T04:22:52.090Z,101580.50
2022-11-05T04:25:19.877Z,101591.59
2022-11-05T04:27:47.313Z,101591.34
2022-11-05T04:30:19.214Z,101594.06
2022-11-05T04:33:06.750Z,101582.63
2022-11-05T04:35:36.145Z,101592.66
2022-11-05T04:38:04.980Z,101583.69
2022-11-05T04:40:32.036Z,101591.59
2022-11-05T04:42:58.556Z,101598.31
2022-11-05T04:45:27.503Z,101603.72
2022-11-05T04:47:54.489Z,101597.50
2022-11-05T04:50:21.582Z,101602.91
2022-11-05T04:52:48.146Z,101609.16
2022-11-05T04:55:14.974Z,101600.22
2022-11-05T04:57:41.522Z,101600.22
2022-11-05T05:00:08.902Z,101606.69
2022-11-05T05:02:35.895Z,101602.09
2022-11-05T05:05:02.622Z,101606.69
2022-11-05T05:07:29.272Z,101604.81
2022-11-05T05:09:55.960Z,101599.66
2022-11-05T05:12:22.896Z,101608.84
2022-11-05T05:14:49.749Z,101601.53
2022-11-05T05:17:17.064Z,101602.34
2022-11-05T05:20:02.685Z,101598.84
2022-11-05T05:22:29.207Z,101606.97
2022-11-05T05:24:56.713Z,101604.25
2022-11-05T05:27:24.155Z,101599.06
2022-11-05T05:29:50.701Z,101599.31
2022-11-05T05:32:17.385Z,101599.88
2022-11-05T05:34:44.129Z,101599.88
2022-11-05T05:37:10.600Z,101594.72
2022-11-05T05:39:37.039Z,101613.09
2022-11-05T05:42:03.577Z,101595.78
2022-11-05T05:44:30.096Z,101600.13
2022-11-05T05:46:56.543Z,101601.22
2022-11-05T05:49:23.054Z,101601.22
2022-11-05T05:51:50.011Z,101599.53
2022-11-05T05:54:16.705Z,101611.25
2022-11-05T05:56:44.547Z,101612.88
2022-11-05T05:59:11.405Z,101615.59
2022-11-05T06:01:38.197Z,101612.28
2022-11-05T06:04:05.011Z,101612.28
2022-11-05T06:06:31.569Z,101612.28
2022-11-05T06:08:58.092Z,101617.72
2022-11-05T06:11:25.365Z,101613.38
2022-11-05T06:13:51.889Z,101619.88
2022-11-05T06:16:19.491Z,101623.38
2022-11-05T06:18:46.930Z,101621.50
2022-11-05T06:21:15.950Z,101621.50
2022-11-05T06:23:44.641Z,101616.88
2022-11-05T06:26:14.101Z,101631.53
2022-11-05T06:28:42.035Z,101620.69
2022-11-05T06:31:09.944Z,101628.22
2022-11-05T06:33:36.842Z,101627.19
2022-11-05T06:36:04.449Z,101620.94
2022-11-05T06:38:36.470Z,101628.00
2022-11-05T06:41:09.784Z,101625.50
2022-11-05T06:43:37.623Z,101635.53
2022-11-05T06:46:04.444Z,101628.47
2022-11-05T06:48:30.913Z,101630.13
2022-11-05T06:50:57.830Z,101635.53
2022-11-05T06:53:24.344Z,101639.06
2022-11-05T06:55:50.875Z,101638.25
2022-11-05T06:58:17.303Z,101637.44
2022-11-05T07:00:43.836Z,101631.19
2022-11-05T07:03:12.296Z,101633.91
2022-11-05T07:05:43.892Z,101629.31
2022-11-05T07:08:10.402Z,101643.94
2022-11-05T07:10:36.965Z,101640.16
2022-11-05T07:13:08.172Z,101651.81
2022-11-05T07:15:35.537Z,101651.00
2022-11-05T07:18:02.466Z,101655.59
2022-11-05T07:20:33.460Z,101647.47
2022-11-05T07:23:05.577Z,101648.53
2022-11-05T07:25:33.271Z,101645.81
2022-11-05T07:28:00.000Z,101637.44
2022-11-05T07:30:27.020Z,101640.16
2022-11-05T07:32:53.545Z,101643.94
2022-11-05T07:35:20.357Z,101642.28
2022-11-05T07:37:49.327Z,101642.53
2022-11-05T07:40:18.484Z,101651.47
2022-11-05T07:42:47.160Z,101645.22
2022-11-05T07:45:14.065Z,101639.00
2022-11-05T07:47:52.645Z,101653.13
2022-11-05T07:50:21.683Z,101649.84
2022-11-05T07:52:48.971Z,101656.91
2022-11-05T07:55:16.272Z,101642.78
2022-11-05T07:57:44.748Z,101653.38
2022-11-05T08:00:17.151Z,101653.13
2022-11-05T08:02:43.944Z,101647.94
2022-11-05T08:05:10.675Z,101655.84
2022-11-05T08:07:37.226Z,101649.84
2022-11-05T08:10:04.356Z,101648.19
2022-11-05T08:12:33.679Z,101650.09
2022-11-05T08:15:00.191Z,101648.19
2022-11-05T08:17:26.905Z,101650.09
2022-11-05T08:19:53.501Z,101651.97
2022-11-05T08:22:19.960Z,101651.47
2022-11-05T08:24:46.604Z,101645.22
2022-11-05T08:27:13.384Z,101650.09
2022-11-05T08:29:39.907Z,101644.66
2022-11-05T08:32:06.437Z,101648.19
2022-11-05T08:34:32.938Z,101653.63
2022-11-05T08:37:01.363Z,101648.19
2022-11-05T08:39:28.198Z,101656.06
2022-11-05T08:41:54.870Z,101664.47
2022-11-05T08:44:21.529Z,101646.31
2022-11-05T08:46:48.111Z,101658.22
2022-11-05T08:49:14.631Z,101659.88
2022-11-05T08:51:41.089Z,101661.75
2022-11-05T08:54:07.700Z,101661.75
2022-11-05T08:56:34.211Z,101669.88
2022-11-05T08:59:01.062Z,101664.47
2022-11-05T09:01:27.678Z,101657.97
2022-11-05T09:03:54.257Z,101660.09
2022-11-05T09:06:20.915Z,101669.06
2022-11-05T09:08:47.488Z,101666.09
2022-11-05T09:11:13.986Z,101671.78
2022-11-05T09:13:40.541Z,101662.56
2022-11-05T09:16:13.598Z,101668.22
2022-11-05T09:18:40.165Z,101665.28
2022-11-05T09:21:06.613Z,101662.56
2022-11-05T09:23:33.044Z,101673.41
2022-11-05T09:25:59.488Z,101673.09
2022-11-05T09:28:25.937Z,101674.50
2022-11-05T09:30:52.990Z,101686.97
2022-11-05T09:33:22.483Z,101685.34
2022-11-05T09:35:48.964Z,101684.50
2022-11-05T09:38:15.735Z,101682.38
2022-11-05T09:41:01.124Z,101672.59
2022-11-05T09:43:33.991Z,101687.78
2022-11-05T09:46:08.525Z,101684.81
2022-11-05T09:48:35.780Z,101676.94
2022-11-05T09:51:05.068Z,101674.84
2022-11-05T09:53:31.743Z,101673.97
2022-11-05T09:56:00.266Z,101678.59
2022-11-05T09:58:51.828Z,101679.41
2022-11-05T10:01:24.909Z,101678.84
2022-11-05T10:03:56.017Z,101675.06
2022-11-05T10:06:25.391Z,101673.16
2022-11-05T10:09:14.849Z,101664.53
2022-11-05T10:11:51.760Z,101678.34
2022-11-05T10:14:32.653Z,101669.16
2022-11-05T10:17:05.235Z,101671.88
2022-11-05T10:19:43.343Z,101673.97
2022-11-05T10:22:13.607Z,101674.84
2022-11-05T10:24:43.587Z,101666.69
2022-11-05T10:27:32.027Z,101669.16
2022-11-05T10:29:58.790Z,101674.31
2022-11-05T10:32:30.725Z,101675.72
2022-11-05T10:35:00.988Z,101678.78
2022-11-05T10:37:28.864Z,101668.53
2022-11-05T10:39:55.561Z,101678.28
2022-11-05T10:42:40.638Z,101675.09
2022-11-05T10:45:21.465Z,101668.59
2022-11-05T10:48:23.409Z,101665.63
2022-11-05T10:50:49.948Z,101653.72
2022-11-05T10:53:21.106Z,101656.44
2022-11-05T10:55:50.211Z,101677.53
2022-11-05T10:58:16.617Z,101672.38
2022-11-05T11:01:02.271Z,101676.97
2022-11-05T11:03:34.534Z,101686.97
2022-11-05T11:06:04.374Z,101680.50
2022-11-05T11:08:35.340Z,101686.16
2022-11-05T11:11:11.296Z,101671.53
2022-11-05T11:13:56.417Z,101680.75
2022-11-05T11:16:28.544Z,101676.13
2022-11-05T11:19:03.262Z,101670.72
2022-11-05T11:21:31.622Z,101676.13
2022-11-05T11:24:04.765Z,101671.53
2022-11-05T11:26:34.287Z,101665.28
2022-11-05T11:29:07.960Z,101672.38
2022-11-05T11:31:38.507Z,101666.09
2022-11-05T11:34:16.394Z,101667.19
2022-11-05T11:36:48.759Z,101675.91
2022-11-05T11:39:20.373Z,101669.66
2022-11-05T11:41:52.525Z,101665.06
2022-11-05T11:44:26.998Z,101673.19
2022-11-05T11:46:57.301Z,101672.13
2022-11-05T11:49:42.157Z,101671.31
2022-11-05T11:52:15.963Z,101675.66
2022-11-05T11:54:42.746Z,101672.94
2022-11-05T12:00:26.876Z,101674.03
2022-11-05T12:03:11.856Z,101667.78
2022-11-05T12:05:52.030Z,101665.06
2022-11-05T12:08:23.660Z,101663.16
2022-11-05T12:11:01.974Z,101646.91
2022-11-05T12:16:47.547Z,101650.44
2022-11-05T12:19:16.881Z,101652.31
2022-11-05T12:21:55.138Z,101656.66
2022-11-05T12:24:29.565Z,101648.53
2022-11-05T12:27:11.350Z,101642.28
2022-11-05T12:29:43.826Z,101643.38
2022-11-05T12:32:33.237Z,101633.34
2022-11-05T12:35:18.227Z,101630.38
2022-11-05T12:37:44.647Z,101640.16
2022-11-05T12:40:23.466Z,101634.97
2022-11-05T12:43:14.805Z,101632.03
2022-11-05T12:46:19.221Z,101629.31
2022-11-05T12:49:01.062Z,101619.50
2022-11-05T12:51:51.352Z,101616.81
2022-11-05T12:54:34.567Z,101616.00
2022-11-05T12:57:04.073Z,101611.16
2022-11-05T12:59:36.451Z,101612.19
2022-11-05T13:02:40.417Z,101600.88
2022-11-05T13:08:15.908Z,101595.69
2022-11-05T13:10:45.052Z,101590.00
2022-11-05T13:13:23.186Z,101592.16
2022-11-05T13:15:54.617Z,101588.88
2022-11-05T13:18:47.506Z,101583.69
2022-11-05T13:21:17.338Z,101590.28
2022-11-05T13:24:02.313Z,101579.44
2022-11-05T13:26:38.633Z,101590.00
2022-11-05T13:29:12.823Z,101578.34
2022-11-05T13:31:45.428Z,101590.00
2022-11-05T13:34:13.212Z,101580.25
2022-11-05T13:37:20.401Z,101585.66
2022-11-05T13:40:03.644Z,101578.59
2022-11-05T13:42:36.132Z,101571.28
2022-11-05T13:45:38.905Z,101572.94
2022-11-05T13:48:24.460Z,101566.94
2022-11-05T13:51:17.077Z,101575.09
2022-11-05T13:54:07.288Z,101578.34
2022-11-05T13:56:58.718Z,101574.00
2022-11-05T14:03:14.615Z,101582.94
2022-11-05T14:05:42.580Z,101586.47
2022-11-05T14:08:11.749Z,101576.44
2022-11-05T14:10:41.681Z,101584.84
2022-11-05T14:13:25.981Z,101580.50
2022-11-05T14:16:07.136Z,101580.50
2022-11-05T14:18:39.078Z,101580.25
2022-11-05T14:21:27.099Z,101577.53
2022-11-05T14:23:59.009Z,101574.81
2022-11-05T14:26:32.152Z,101575.91
2022-11-05T14:28:58.613Z,101573.41
2022-11-05T14:32:07.670Z,101573.41
2022-11-05T14:34:42.506Z,101575.91
2022-11-05T14:37:12.531Z,101572.38
2022-11-05T14:39:40.917Z,101579.44
2022-11-05T14:42:12.078Z,101568.00
2022-11-05T14:44:55.782Z,101570.69
2022-11-05T14:47:25.823Z,101568.56
2022-11-05T14:49:59.542Z,101577.19
2022-11-05T14:52:26.160Z,101570.69
2022-11-05T14:54:55.748Z,101565.53
2022-11-05T14:57:41.778Z,101562.81
2022-11-05T15:00:29.931Z,101566.34
2022-11-05T15:03:01.951Z,101564.47
2022-11-05T15:05:31.203Z,101559.53
2022-11-05T15:07:59.149Z,101554.69
2022-11-05T15:10:35.464Z,101552.22
2022-11-05T15:13:04.903Z,101553.63
2022-11-05T15:15:47.164Z,101552.78
2022-11-05T15:18:24.429Z,101558.47
2022-11-05T15:20:56.407Z,101559.53
2022-11-05T15:23:26.087Z,101555.19
2022-11-05T15:26:22.078Z,101565.78
2022-11-05T15:28:53.304Z,101563.06
2022-11-05T15:31:29.245Z,101554.09
2022-11-05T15:34:21.943Z,101555.19
2022-11-05T15:36:49.867Z,101550.56
2022-11-05T15:39:49.697Z,101559.53
2022-11-05T15:42:17.937Z,101554.09
2022-11-05T15:44:47.036Z,101549.75
2022-11-05T15:47:18.452Z,101549.50
2022-11-05T15:49:48.164Z,101540.81
2022-11-05T15:52:16.726Z,101553.56
2022-11-05T15:54:44.043Z,101547.31
2022-11-05T15:57:26.373Z,101550.00
2022-11-05T15:59:53.085Z,101546.50
2022-11-05T16:02:33.022Z,101539.16
2022-11-05T16:05:02.846Z,101536.47
2022-11-05T16:07:30.356Z,101538.66
2022-11-05T16:10:01.631Z,101531.84
2022-11-05T16:12:30.951Z,101535.66
2022-11-05T16:15:02.238Z,101540.22
2022-11-05T16:17:45.251Z,101529.38
2022-11-05T16:20:28.365Z,101535.66
2022-11-05T16:22:58.415Z,101515.00
2022-11-05T16:25:39.852Z,101521.50
2022-11-05T16:28:24.632Z,101512.06
2022-11-05T16:31:02.420Z,101506.03
2022-11-05T16:33:37.823Z,101507.94
2022-11-05T16:36:04.771Z,101506.88
2022-11-05T16:38:31.234Z,101508.75
2022-11-05T16:40:58.945Z,101515.25
2022-11-05T16:43:26.245Z,101511.47
2022-11-05T16:45:54.969Z,101491.66
2022-11-05T16:48:21.592Z,101489.22
2022-11-05T16:50:48.216Z,101480.00
2022-11-05T16:53:15.248Z,101473.19
2022-11-05T16:55:43.649Z,101474.81
2022-11-05T16:58:22.746Z,101483.53
2022-11-05T17:00:50.920Z,101488.97
2022-11-05T17:03:17.890Z,101482.94
2022-11-05T17:05:44.643Z,101498.41
2022-11-05T17:08:11.452Z,101498.16
2022-11-05T17:10:38.778Z,101499.00
2022-11-05T17:13:05.256Z,101509.25
2022-11-05T17:15:35.628Z,101518.19
2022-11-05T17:18:04.394Z,101520.69
2022-11-05T17:20:42.930Z,101515.50
2022-11-05T17:23:15.501Z,101531.75
2022-11-05T17:25:44.527Z,101533.66
2022-11-05T17:28:11.407Z,101537.19
2022-11-05T17:30:41.226Z,101533.66
2022-11-05T17:33:08.811Z,101543.44
2022-11-05T17:35:38.283Z,101535.31
2022-11-05T17:38:05.117Z,101530.13
2022-11-05T17:40:34.810Z,101536.63
2022-11-05T17:43:01.956Z,101543.34
2022-11-05T17:45:28.700Z,101552.88
2022-11-05T17:47:55.265Z,101552.06
2022-11-05T17:50:22.052Z,101545.03
2022-11-05T17:52:48.610Z,101545.84
2022-11-05T17:55:17.774Z,101541.47
2022-11-05T17:57:46.293Z,101542.03
2022-11-05T18:00:14.873Z,101543.94
2022-11-05T18:02:41.381Z,101546.66
2022-11-05T18:05:08.588Z,101555.00
2022-11-05T18:07:35.151Z,101542.88
2022-11-05T18:10:01.615Z,101545.03
2022-11-05T18:12:28.101Z,101540.41
2022-11-05T18:14:54.548Z,101543.94
2022-11-05T18:17:21.071Z,101539.59
2022-11-05T18:19:47.582Z,101540.41
2022-11-05T18:22:15.824Z,101532.50
2022-11-05T18:24:42.264Z,101530.63
2022-11-05T18:27:08.713Z,101519.78
2022-11-05T18:29:35.189Z,101520.84
2022-11-05T18:32:01.891Z,101499.97
2022-11-05T18:34:28.458Z,101509.19
2022-11-05T18:36:56.588Z,101489.63
2022-11-05T18:39:23.984Z,101495.63
2022-11-05T18:41:50.499Z,101463.34
2022-11-05T18:44:17.055Z,101458.97
2022-11-05T18:46:57.516Z,101463.59
2022-11-05T18:49:25.088Z,101464.41
2022-11-05T18:51:51.625Z,101460.38
2022-11-05T18:54:18.160Z,101454.97
2022-11-05T18:56:47.200Z,101465.81
2022-11-05T18:59:35.745Z,101474.19
2022-11-05T19:02:02.999Z,101472.53
2022-11-05T19:04:30.659Z,101467.13
2022-11-05T19:07:01.701Z,101455.22
2022-11-05T19:09:31.197Z,101466.06
2022-11-05T19:11:57.813Z,101459.78
2022-11-05T19:14:24.303Z,101459.25
2022-11-05T19:16:50.935Z,101462.78
2022-11-05T19:19:17.395Z,101461.69
2022-11-05T19:21:44.501Z,101455.72
2022-11-05T19:24:16.591Z,101450.84
2022-11-05T19:26:43.548Z,101448.41
2022-11-05T19:29:10.645Z,101436.75
2022-11-05T19:31:37.161Z,101436.75
2022-11-05T19:34:05.457Z,101434.84
2022-11-05T19:36:33.129Z,101425.91
2022-11-05T19:39:06.333Z,101434.03
2022-11-05T19:41:33.370Z,101430.25
2022-11-05T19:44:01.695Z,101435.91
2022-11-05T19:46:29.581Z,101439.69
2022-11-05T19:48:56.347Z,101435.91
2022-11-05T19:51:25.360Z,101434.84
2022-11-05T19:53:52.834Z,101442.38
2022-11-05T19:56:22.121Z,101433.44
2022-11-05T19:58:49.414Z,101425.06
2022-11-05T20:01:18.350Z,101425.31
2022-11-05T20:03:45.475Z,101426.13
2022-11-05T20:06:21.841Z,101421.53
2022-11-05T20:11:39.957Z,101410.13
2022-11-05T20:14:06.895Z,101420.97
2022-11-05T20:16:38.152Z,101408.22
2022-11-05T20:19:06.778Z,101412.25
2022-11-05T20:21:34.161Z,101416.34
2022-11-05T20:24:01.065Z,101428.03
2022-11-05T20:26:27.668Z,101423.41
2022-11-05T20:28:54.582Z,101433.44
2022-11-05T20:31:21.641Z,101431.81
2022-11-05T20:33:48.161Z,101433.44
2022-11-05T20:36:18.273Z,101431.81
2022-11-05T20:38:53.012Z,101429.09
2022-11-05T20:41:19.962Z,101438.31
2022-11-05T20:43:48.017Z,101428.50
2022-11-05T20:46:17.500Z,101421.22
2022-11-05T20:48:44.822Z,101435.84
2022-11-05T20:51:17.627Z,101423.94
2022-11-05T20:53:46.257Z,101431.00
2022-11-05T20:56:21.640Z,101443.16
2022-11-05T20:58:48.883Z,101412.25
2022-11-05T21:01:16.724Z,101411.44
2022-11-05T21:03:44.405Z,101426.88
2022-11-05T21:06:11.792Z,101416.03
2022-11-05T21:08:38.981Z,101425.00
2022-11-05T21:11:07.082Z,101423.34
2022-11-05T21:13:34.064Z,101425.25
2022-11-05T21:16:01.408Z,101422.53
2022-11-05T21:18:32.329Z,101420.66
2022-11-05T21:21:01.935Z,101424.16
2022-11-05T21:23:28.771Z,101409.00
2022-11-05T21:25:56.019Z,101407.09
2022-11-05T21:28:22.914Z,101413.59
2022-11-05T21:30:49.518Z,101412.78
2022-11-05T21:33:18.168Z,101398.38
2022-11-05T21:35:48.102Z,101419.81
2022-11-05T21:38:16.794Z,101419.00
2022-11-05T21:40:44.117Z,101417.34
2022-11-05T21:43:11.419Z,101413.59
2022-11-05T21:45:39.717Z,101420.06
2022-11-05T21:48:07.528Z,101414.63
2022-11-05T21:50:53.116Z,101415.72
2022-11-05T21:53:38.469Z,101419.25
2022-11-05T21:56:43.650Z,101406.75
2022-11-05T21:59:32.202Z,101398.59
2022-11-05T22:02:02.504Z,101411.13
2022-11-05T22:04:34.070Z,101409.44
2022-11-05T22:07:00.634Z,101405.09
2022-11-05T22:09:27.706Z,101400.28
2022-11-05T22:11:54.851Z,101388.63
2022-11-05T22:14:21.921Z,101384.47
2022-11-05T22:16:48.636Z,101383.41
2022-11-05T22:19:15.170Z,101382.84
2022-11-05T22:21:42.065Z,101385.31
2022-11-05T22:24:09.114Z,101381.75
2022-11-05T22:26:37.219Z,101388.03
2022-11-05T22:29:04.212Z,101387.19
2022-11-05T22:31:36.001Z,101386.13
2022-11-05T22:34:04.540Z,101388.25
2022-11-05T22:36:31.765Z,101382.03
2022-11-05T22:38:58.508Z,101384.47
2022-11-05T22:41:25.058Z,101398.28
2022-11-05T22:43:51.530Z,101382.03
2022-11-05T22:46:23.581Z,101362.22
2022-11-05T22:48:51.542Z,101359.53
2022-11-05T22:51:22.230Z,101353.28
2022-11-05T22:53:49.196Z,101364.69
2022-11-05T22:56:18.644Z,101348.69
2022-11-05T22:58:45.237Z,101349.75
2022-11-05T23:01:13.275Z,101350.56
2022-11-05T23:03:41.522Z,101342.44
2022-11-05T23:06:31.229Z,101343.25
2022-11-05T23:09:16.993Z,101334.31
2022-11-05T23:11:47.698Z,101347.06
2022-11-05T23:14:14.874Z,101342.44
2022-11-05T23:17:00.692Z,101346.25
2022-11-05T23:19:46.065Z,101346.25
2022-11-05T23:22:37.664Z,101340.22
2022-11-05T23:25:05.838Z,101329.97
2022-11-05T23:27:35.114Z,101315.56
2022-11-05T23:30:05.084Z,101334.56
2022-11-05T23:32:32.396Z,101339.16
2022-11-05T23:34:59.360Z,101333.50
2022-11-05T23:37:47.924Z,101339.16
2022-11-05T23:40:25.582Z,101340.22
2022-11-05T23:43:10.677Z,101325.59
2022-11-05T23:45:57.274Z,101326.69
2022-11-05T23:48:33.740Z,101333.72
2022-11-05T23:51:09.525Z,101337.53
2022-11-05T23:53:41.048Z,101331.84
2022-11-05T23:56:13.817Z,101333.72
2022-11-05T23:58:41.250Z,101328.31
